Time;durP1;ratioP1;P1;durP2;ratioP2;P2;SDS_P1;SDS_P2;PMS_P1;PMS_P2;Temp;Humidity;BMP_temperature;BMP_pressure;BME280_temperature;BME280_humidity;BME280_pressure;Samples;Min_cycle;Max_cycle;Signal;HPM_P1;HPM_P2
2022/11/11 00:01:09;;;;;;;4.00;2.60;;;10.40;71.90;;;;;;2302374;55;21016;-71
2022/11/11 00:03:36;;;;;;;4.05;2.00;;;10.40;71.70;;;;;;2460165;55;21934;-74
2022/11/11 00:06:03;;;;;;;4.65;1.92;;;10.30;71.50;;;;;;2305022;55;20949;-74
2022/11/11 00:08:30;;;;;;;4.90;2.05;;;10.30;71.50;;;;;;2367552;55;21053;-74
2022/11/11 00:11:01;;;;;;;3.42;1.95;;;10.30;71.70;;;;;;2327427;55;20957;-74
2022/11/11 00:13:28;;;;;;;3.17;1.77;;;10.30;71.70;;;;;;2430446;55;21293;-74
2022/11/11 00:15:54;;;;;;;4.45;1.95;;;10.20;71.70;;;;;;2423790;55;21006;-73
2022/11/11 00:26:45;;;;;;;4.10;2.12;;;10.10;71.70;;;;;;2257243;56;21232;-74
2022/11/11 00:29:12;;;;;;;4.20;2.40;;;10.10;71.80;;;;;;2237177;56;20959;-73
2022/11/11 00:32:21;;;;;;;3.45;1.80;;;10.10;71.90;;;;;;2235793;56;20955;-74
2022/11/11 00:37:36;;;;;;;4.28;2.30;;;10.10;72.20;;;;;;2256876;56;20997;-74
2022/11/11 00:40:02;;;;;;;4.82;2.47;;;10.00;72.30;;;;;;2280836;55;20939;-73
2022/11/11 00:42:28;;;;;;;2.97;1.60;;;10.00;72.50;;;;;;2290417;55;21478;-73
2022/11/11 00:44:55;;;;;;;5.55;2.10;;;10.00;72.60;;;;;;2490228;55;21448;-74
2022/11/11 00:52:56;;;;;;;3.03;1.77;;;10.10;72.60;;;;;;2295467;55;21028;-74
2022/11/11 00:55:22;;;;;;;3.05;1.65;;;10.00;72.40;;;;;;2262047;56;21724;-75
2022/11/11 00:57:49;;;;;;;3.37;1.90;;;10.00;72.30;;;;;;2261647;56;21022;-77
2022/11/11 01:00:15;;;;;;;3.58;1.83;;;10.00;72.30;;;;;;2321463;55;21457;-76
2022/11/11 01:02:42;;;;;;;3.33;1.83;;;10.00;72.30;;;;;;2278174;55;21511;-74
2022/11/11 01:05:09;;;;;;;3.03;1.52;;;10.00;72.30;;;;;;2261731;56;20952;-76
2022/11/11 01:07:35;;;;;;;3.10;1.58;;;10.00;72.30;;;;;;2262062;56;20961;-77
2022/11/11 01:10:03;;;;;;;2.65;1.35;;;10.00;72.30;;;;;;2475383;55;20957;-77
2022/11/11 01:12:29;;;;;;;2.33;1.17;;;10.00;72.20;;;;;;2304735;55;20989;-76
2022/11/11 01:14:55;;;;;;;2.90;1.50;;;10.00;72.20;;;;;;2312141;55;21025;-74
2022/11/11 01:17:22;;;;;;;3.45;1.70;;;10.00;72.10;;;;;;2490597;55;20920;-77
2022/11/11 01:19:49;;;;;;;3.20;1.60;;;10.00;72.20;;;;;;2261696;56;21693;-74
2022/11/11 01:22:15;;;;;;;2.78;1.27;;;9.90;73.30;;;;;;2262601;56;20901;-77
2022/11/11 01:24:41;;;;;;;2.80;1.48;;;9.90;73.30;;;;;;2261481;56;21661;-76
2022/11/11 01:27:08;;;;;;;2.60;1.50;;;10.00;72.20;;;;;;2417665;55;21868;-73
2022/11/11 01:29:34;;;;;;;2.67;1.27;;;9.90;73.30;;;;;;2261553;56;21382;-74
2022/11/11 01:32:01;;;;;;;4.00;1.35;;;9.90;73.30;;;;;;2261247;56;20973;-74
2022/11/11 01:34:27;;;;;;;3.33;1.60;;;9.90;73.20;;;;;;2261933;56;20936;-73
2022/11/11 01:36:53;;;;;;;2.78;1.50;;;9.90;73.10;;;;;;2258940;56;21280;-72
2022/11/11 01:39:20;;;;;;;2.83;1.33;;;9.90;73.20;;;;;;2243380;56;21004;-73
2022/11/11 01:41:49;;;;;;;3.05;1.45;;;9.90;73.10;;;;;;2261827;56;21088;-74
2022/11/11 01:44:46;;;;;;;2.28;1.10;;;9.80;72.90;;;;;;2267431;55;20997;-74
2022/11/11 01:47:13;;;;;;;3.10;1.45;;;9.80;72.50;;;;;;2261801;56;21774;-74
2022/11/11 01:50:40;;;;;;;2.92;1.40;;;9.80;72.60;;;;;;2262104;56;21625;-74
2022/11/11 01:53:06;;;;;;;2.28;1.27;;;9.80;71.90;;;;;;2489850;55;21030;-74
2022/11/11 01:55:32;;;;;;;2.92;1.50;;;9.70;72.50;;;;;;2282879;55;21005;-74
2022/11/11 01:58:04;;;;;;;4.35;2.05;;;9.70;72.40;;;;;;2261148;56;21000;-73
2022/11/11 02:00:30;;;;;;;2.80;1.60;;;9.70;72.50;;;;;;2402784;55;21033;-73
2022/11/11 02:02:58;;;;;;;3.67;1.90;;;9.60;72.70;;;;;;2261558;56;21047;-73
2022/11/11 02:05:41;;;;;;;3.22;1.75;;;9.60;72.80;;;;;;2316382;55;20913;-72
2022/11/11 02:08:31;;;;;;;3.85;1.90;;;9.60;72.80;;;;;;2261089;56;20965;-73
2022/11/11 02:11:12;;;;;;;3.90;1.70;;;9.60;72.70;;;;;;2300733;55;20976;-73
2022/11/11 02:16:24;;;;;;;3.62;1.80;;;9.60;72.80;;;;;;2265693;56;20952;-73
2022/11/11 02:18:50;;;;;;;5.95;2.45;;;9.50;72.60;;;;;;2243609;56;21876;-73
2022/11/11 02:21:32;;;;;;;11.15;2.47;;;9.50;72.70;;;;;;2261595;56;20953;-74
2022/11/11 02:24:12;;;;;;;4.93;2.80;;;9.50;72.90;;;;;;2265197;55;20956;-73
2022/11/11 02:26:38;;;;;;;12.32;2.33;;;9.50;73.10;;;;;;2490735;55;20949;-74
2022/11/11 02:29:08;;;;;;;3.60;2.00;;;9.50;73.40;;;;;;2358489;55;20928;-74
2022/11/11 02:31:34;;;;;;;4.43;2.40;;;9.50;73.40;;;;;;2261823;56;20980;-73
2022/11/11 02:34:01;;;;;;;3.90;2.08;;;9.50;73.40;;;;;;2261901;56;20985;-73
2022/11/11 02:36:29;;;;;;;3.33;1.90;;;9.50;73.40;;;;;;2294314;55;21015;-73
2022/11/11 02:38:56;;;;;;;3.92;1.95;;;9.50;73.30;;;;;;2261852;56;20949;-73
2022/11/11 02:44:07;;;;;;;3.55;1.85;;;9.50;73.30;;;;;;2350194;55;20972;-74
2022/11/11 02:46:34;;;;;;;3.35;1.65;;;9.50;73.10;;;;;;2261781;56;21324;-74
2022/11/11 02:49:00;;;;;;;3.67;1.85;;;9.40;72.90;;;;;;2261811;56;21426;-73
2022/11/11 02:51:27;;;;;;;3.20;1.73;;;9.40;72.60;;;;;;2261849;56;21001;-73
2022/11/11 02:53:57;;;;;;;2.83;1.50;;;9.40;72.50;;;;;;2399843;55;20945;-73
2022/11/11 02:59:12;;;;;;;3.83;1.67;;;9.30;72.40;;;;;;2261926;56;21016;-73
2022/11/11 03:01:39;;;;;;;2.58;1.40;;;9.30;72.50;;;;;;2396970;55;21076;-73
2022/11/11 03:04:05;;;;;;;3.22;1.80;;;9.30;72.50;;;;;;2357829;55;21473;-73
2022/11/11 03:06:32;;;;;;;3.95;2.28;;;9.30;72.60;;;;;;2261711;56;20973;-73
2022/11/11 03:08:59;;;;;;;3.33;1.90;;;9.20;72.50;;;;;;2261502;56;20965;-73
2022/11/11 03:11:28;;;;;;;4.53;2.00;;;9.30;72.70;;;;;;2307018;55;20977;-73
2022/11/11 03:13:57;;;;;;;2.70;1.40;;;9.30;72.70;;;;;;2262181;56;21025;-73
2022/11/11 03:19:08;;;;;;;3.28;1.70;;;9.20;72.50;;;;;;2282892;55;20961;-73
2022/11/11 03:21:35;;;;;;;3.30;1.80;;;9.20;72.60;;;;;;2288681;55;20977;-73
2022/11/11 03:27:16;;;;;;;2.53;1.27;;;9.20;72.70;;;;;;2261746;56;21760;-73
2022/11/11 03:29:43;;;;;;;2.92;1.48;;;9.20;72.80;;;;;;2262137;56;21331;-74
2022/11/11 03:32:10;;;;;;;2.90;1.50;;;9.10;72.80;;;;;;2264377;56;21084;-73
2022/11/11 03:34:37;;;;;;;3.42;1.75;;;9.10;72.90;;;;;;2428887;55;21748;-73
2022/11/11 03:39:52;;;;;;;2.55;1.15;;;9.10;73.00;;;;;;2261794;56;20960;-73
2022/11/11 03:42:18;;;;;;;2.50;1.12;;;9.10;72.90;;;;;;2261754;56;21739;-74
2022/11/11 03:44:45;;;;;;;2.55;1.20;;;9.10;72.80;;;;;;2261835;56;20964;-72
2022/11/11 03:47:12;;;;;;;8.20;1.50;;;9.10;72.60;;;;;;2261541;56;21819;-74
2022/11/11 03:49:38;;;;;;;3.92;1.77;;;9.10;72.80;;;;;;2262190;56;21324;-73
2022/11/11 03:52:06;;;;;;;6.75;1.58;;;9.10;73.00;;;;;;2262180;56;20934;-74
2022/11/11 03:54:32;;;;;;;3.50;1.50;;;9.10;73.20;;;;;;2261702;56;20924;-73
2022/11/11 03:59:44;;;;;;;2.70;1.20;;;9.10;73.40;;;;;;2316588;55;20961;-73
2022/11/11 04:10:27;;;;;;;3.50;1.20;;;9.10;73.10;;;;;;2261912;56;20944;-73
2022/11/11 04:21:42;;;;;;;2.67;1.37;;;9.00;72.50;;;;;;2261965;56;21040;-73
2022/11/11 04:26:58;;;;;;;2.25;1.02;;;8.90;72.30;;;;;;2398943;55;21040;-73
2022/11/11 04:29:28;;;;;;;2.00;0.98;;;8.90;72.40;;;;;;2262139;56;20964;-73
2022/11/11 04:34:53;;;;;;;2.50;1.33;;;8.90;72.60;;;;;;2410310;55;20905;-73
2022/11/11 04:37:21;;;;;;;2.47;1.30;;;8.90;72.60;;;;;;2490389;55;21052;-73
2022/11/11 04:42:32;;;;;;;1.80;0.82;;;8.80;72.30;;;;;;2260445;56;20936;-73
2022/11/11 04:48:02;;;;;;;1.80;0.80;;;8.80;72.30;;;;;;2261827;56;21056;-73
2022/11/11 04:50:35;;;;;;;1.50;0.70;;;8.80;72.00;;;;;;2261510;56;20921;-73
2022/11/11 04:53:02;;;;;;;2.08;0.98;;;8.80;72.20;;;;;;2362458;55;21149;-73
2022/11/11 04:58:13;;;;;;;2.37;0.90;;;8.70;72.20;;;;;;2267654;55;20949;-73
2022/11/11 05:00:39;;;;;;;2.05;0.90;;;8.70;72.30;;;;;;2427316;55;20940;-73
2022/11/11 05:03:15;;;;;;;1.80;0.90;;;8.60;72.40;;;;;;2261526;56;20933;-73
2022/11/11 05:08:57;;;;;;;2.10;1.00;;;8.60;72.60;;;;;;2318471;55;20937;-73
2022/11/11 05:11:31;;;;;;;4.03;1.15;;;8.60;72.80;;;;;;2260941;56;21068;-72
2022/11/11 05:22:31;;;;;;;1.70;0.80;;;8.60;73.20;;;;;;2272755;55;21004;-73
2022/11/11 05:27:51;;;;;;;10.65;1.10;;;8.60;73.40;;;;;;2261790;56;21439;-72
2022/11/11 05:30:18;;;;;;;11.10;1.33;;;8.70;73.60;;;;;;2264667;56;20997;-72
2022/11/11 05:32:46;;;;;;;2.78;1.02;;;8.70;73.80;;;;;;2312697;55;20976;-72
2022/11/11 05:35:12;;;;;;;2.20;1.00;;;8.70;74.00;;;;;;2376292;55;21001;-73
2022/11/11 05:37:39;;;;;;;2.72;0.90;;;8.70;74.20;;;;;;2261853;56;20952;-72
2022/11/11 05:40:06;;;;;;;3.42;0.80;;;8.80;74.30;;;;;;2261816;56;21458;-72
2022/11/11 05:42:32;;;;;;;1.45;0.70;;;8.80;74.20;;;;;;2297146;55;20952;-73
2022/11/11 05:45:00;;;;;;;1.23;0.70;;;8.80;74.10;;;;;;2261857;56;21370;-72
2022/11/11 05:47:26;;;;;;;1.58;0.80;;;8.90;74.10;;;;;;2261956;56;22014;-73
2022/11/11 05:49:53;;;;;;;1.70;0.68;;;8.80;73.90;;;;;;2262484;56;21020;-73
2022/11/11 05:52:19;;;;;;;1.30;0.60;;;8.90;73.80;;;;;;2261124;56;21032;-73
2022/11/11 05:54:49;;;;;;;1.08;0.50;;;8.90;73.70;;;;;;2262066;56;21028;-73
2022/11/11 05:57:15;;;;;;;1.67;0.73;;;8.90;73.60;;;;;;2276557;55;21414;-73
2022/11/11 05:59:42;;;;;;;1.40;0.60;;;8.90;73.60;;;;;;2261723;56;20940;-72
2022/11/11 06:02:08;;;;;;;1.58;0.75;;;8.90;73.50;;;;;;2477553;55;20949;-73
2022/11/11 06:04:35;;;;;;;1.05;0.60;;;8.90;73.50;;;;;;2261112;56;21410;-73
2022/11/11 06:07:02;;;;;;;1.77;0.90;;;8.90;73.40;;;;;;2260719;56;20949;-73
2022/11/11 06:09:28;;;;;;;1.90;0.80;;;8.90;73.40;;;;;;2260907;56;20964;-73
2022/11/11 06:11:55;;;;;;;1.08;0.60;;;8.90;73.40;;;;;;2303386;55;21426;-73
2022/11/11 06:14:21;;;;;;;1.27;0.65;;;8.90;73.20;;;;;;2261209;56;20973;-72
2022/11/11 06:16:48;;;;;;;4.00;1.77;;;8.90;73.10;;;;;;2274077;55;21085;-73
2022/11/11 06:19:14;;;;;;;3.80;1.65;;;8.90;73.20;;;;;;2261599;56;21071;-73
2022/11/11 06:21:56;;;;;;;3.40;1.60;;;8.90;73.30;;;;;;2437571;55;21331;-73
2022/11/11 06:24:23;;;;;;;3.17;1.67;;;9.00;73.60;;;;;;2261669;56;20989;-72
2022/11/11 06:26:51;;;;;;;3.00;1.50;;;9.00;73.60;;;;;;2489942;55;21008;-73
2022/11/11 06:29:18;;;;;;;2.90;1.50;;;8.90;73.60;;;;;;2261787;56;21024;-71
2022/11/11 06:31:44;;;;;;;3.42;1.80;;;9.00;73.70;;;;;;2375523;55;20957;-73
2022/11/11 06:34:11;;;;;;;3.08;1.58;;;9.00;73.70;;;;;;2285779;55;21073;-72
2022/11/11 06:36:37;;;;;;;3.87;1.55;;;9.00;73.70;;;;;;2367249;55;20940;-72
2022/11/11 06:39:04;;;;;;;2.87;1.37;;;9.00;73.70;;;;;;2262019;56;20972;-73
2022/11/11 06:41:30;;;;;;;2.62;1.35;;;9.00;73.80;;;;;;2303140;55;21488;-72
2022/11/11 06:43:57;;;;;;;2.62;1.15;;;9.00;73.90;;;;;;2262219;56;21618;-73
2022/11/11 06:46:24;;;;;;;2.55;1.45;;;9.00;74.60;;;;;;2442271;55;21065;-73
2022/11/11 06:48:50;;;;;;;2.95;1.60;;;9.00;73.90;;;;;;2261149;56;20981;-73
2022/11/11 06:51:17;;;;;;;3.80;1.80;;;9.00;73.80;;;;;;2281952;55;20952;-73
2022/11/11 06:53:44;;;;;;;6.65;3.20;;;9.10;73.90;;;;;;2261436;56;20941;-73
2022/11/11 06:56:14;;;;;;;10.10;3.30;;;9.00;73.70;;;;;;2382386;55;21025;-73
2022/11/11 06:58:40;;;;;;;4.62;2.42;;;9.10;73.80;;;;;;2287844;55;21206;-73
2022/11/11 07:01:08;;;;;;;9.38;3.03;;;9.10;73.80;;;;;;2261490;56;20965;-72
2022/11/11 07:03:35;;;;;;;3.78;2.20;;;9.10;73.70;;;;;;2426064;55;21558;-72
2022/11/11 07:06:02;;;;;;;4.60;2.12;;;9.10;73.60;;;;;;2392447;55;20945;-72
2022/11/11 07:08:28;;;;;;;4.70;2.10;;;9.10;73.60;;;;;;2353718;55;20949;-73
2022/11/11 07:10:55;;;;;;;4.82;2.58;;;9.10;73.70;;;;;;2261830;56;20920;-72
2022/11/11 07:13:21;;;;;;;3.90;2.45;;;9.10;73.80;;;;;;2261411;56;20993;-72
2022/11/11 07:15:48;;;;;;;4.70;3.08;;;9.10;73.80;;;;;;2261563;56;20992;-73
2022/11/11 07:18:14;;;;;;;5.15;3.60;;;9.10;73.80;;;;;;2285374;55;20969;-72
2022/11/11 07:20:41;;;;;;;4.55;2.87;;;9.10;73.80;;;;;;2261522;56;20940;-73
2022/11/11 07:23:07;;;;;;;3.92;2.40;;;9.10;73.80;;;;;;2303401;55;20972;-73
2022/11/11 07:25:34;;;;;;;5.43;2.17;;;9.20;73.70;;;;;;2299454;55;20945;-72
2022/11/11 07:28:01;;;;;;;3.75;1.83;;;9.20;73.50;;;;;;2304223;55;21355;-72
2022/11/11 07:30:27;;;;;;;3.22;1.70;;;9.10;73.20;;;;;;2309945;55;20993;-73
2022/11/11 07:32:54;;;;;;;3.42;1.83;;;9.10;73.10;;;;;;2316204;55;20980;-72
2022/11/11 07:35:20;;;;;;;3.65;1.87;;;9.10;73.10;;;;;;2329257;55;21434;-73
2022/11/11 07:37:47;;;;;;;3.45;2.05;;;9.10;73.10;;;;;;2261914;56;21238;-72
2022/11/11 07:40:15;;;;;;;2.72;1.52;;;9.10;73.20;;;;;;2387102;55;20937;-73
2022/11/11 07:42:42;;;;;;;3.12;1.60;;;9.10;73.10;;;;;;2490457;55;21355;-73
2022/11/11 07:45:09;;;;;;;3.03;1.62;;;9.10;73.10;;;;;;2442739;55;20968;-73
2022/11/11 07:47:35;;;;;;;3.35;1.95;;;9.10;73.10;;;;;;2261723;56;20936;-73
2022/11/11 07:50:03;;;;;;;3.80;2.20;;;9.10;73.10;;;;;;2262029;56;21020;-73
2022/11/11 07:52:33;;;;;;;11.93;5.10;;;9.10;73.10;;;;;;2431781;55;20976;-73
2022/11/11 07:54:59;;;;;;;11.50;5.62;;;9.10;73.30;;;;;;2490648;55;20949;-72
2022/11/11 07:57:26;;;;;;;9.05;5.32;;;9.10;73.50;;;;;;2261086;56;21364;-72
2022/11/11 07:59:52;;;;;;;8.13;4.82;;;9.10;73.60;;;;;;2480564;55;20969;-73
2022/11/11 08:02:19;;;;;;;8.77;5.45;;;9.10;73.70;;;;;;2261378;56;20956;-73
2022/11/11 08:04:47;;;;;;;10.93;5.53;;;9.20;73.70;;;;;;2490284;55;20957;-73
2022/11/11 08:07:15;;;;;;;9.73;5.40;;;9.20;73.60;;;;;;2261264;56;21510;-73
2022/11/11 08:09:44;;;;;;;11.27;6.40;;;9.20;73.50;;;;;;2320580;55;20952;-73
2022/11/11 08:14:55;;;;;;;8.85;4.93;;;9.20;73.80;;;;;;2324706;55;20946;-72
2022/11/11 08:17:23;;;;;;;7.95;4.65;;;9.20;73.80;;;;;;2261145;56;20964;-72
2022/11/11 08:19:50;;;;;;;7.07;4.00;;;9.30;73.80;;;;;;2331563;55;20980;-73
2022/11/11 08:22:16;;;;;;;5.03;3.15;;;9.30;73.80;;;;;;2266837;55;21060;-73
2022/11/11 08:24:43;;;;;;;5.30;2.33;;;9.30;73.80;;;;;;2323022;55;20964;-73
2022/11/11 08:27:27;;;;;;;5.30;2.90;;;9.30;73.80;;;;;;2262038;56;21016;-73
2022/11/11 08:29:54;;;;;;;6.25;3.00;;;9.30;73.70;;;;;;2269877;55;20964;-72
2022/11/11 08:32:20;;;;;;;8.27;4.57;;;9.30;73.80;;;;;;2391763;55;21045;-73
2022/11/11 08:34:47;;;;;;;8.88;4.75;;;9.30;74.00;;;;;;2397937;55;20977;-73
2022/11/11 08:37:13;;;;;;;8.82;4.95;;;9.40;74.20;;;;;;2255318;56;21037;-73
2022/11/11 08:39:40;;;;;;;6.75;4.03;;;9.40;74.40;;;;;;2255854;56;21910;-73
2022/11/11 08:42:06;;;;;;;6.57;3.75;;;9.40;74.50;;;;;;2315806;55;21426;-73
2022/11/11 08:44:33;;;;;;;5.53;3.20;;;9.50;74.70;;;;;;2465385;54;21333;-73
2022/11/11 08:46:59;;;;;;;6.45;3.37;;;9.50;74.80;;;;;;2261363;55;21437;-73
2022/11/11 08:49:26;;;;;;;5.60;3.35;;;9.60;75.00;;;;;;2267659;55;20953;-72
2022/11/11 08:51:52;;;;;;;4.80;2.92;;;9.60;75.10;;;;;;2261685;56;20961;-73
2022/11/11 08:54:19;;;;;;;5.22;3.20;;;9.70;75.20;;;;;;2439738;55;21529;-71
2022/11/11 08:56:45;;;;;;;3.67;2.37;;;9.70;75.30;;;;;;2261791;56;21052;-72
2022/11/11 08:59:12;;;;;;;4.45;2.42;;;9.80;75.40;;;;;;2421352;55;20981;-73
2022/11/11 09:01:38;;;;;;;3.95;2.10;;;9.80;75.40;;;;;;2260219;55;21059;-74
2022/11/11 09:04:05;;;;;;;3.35;2.00;;;9.90;75.50;;;;;;2368975;54;21010;-73
2022/11/11 09:06:48;;;;;;;4.00;1.90;;;9.90;75.40;;;;;;2262246;56;20969;-73
2022/11/11 09:09:15;;;;;;;3.60;2.00;;;10.00;74.30;;;;;;2489915;55;21469;-73
2022/11/11 09:11:41;;;;;;;3.22;1.73;;;10.00;74.30;;;;;;2262019;56;21417;-73
2022/11/11 09:14:07;;;;;;;4.47;2.25;;;10.10;74.30;;;;;;2261606;56;20949;-73
2022/11/11 09:16:34;;;;;;;3.28;1.95;;;10.10;74.40;;;;;;2267337;55;20945;-73
2022/11/11 09:19:00;;;;;;;3.78;2.35;;;10.20;74.50;;;;;;2312354;55;21017;-73
2022/11/11 09:21:27;;;;;;;3.85;2.08;;;10.20;74.50;;;;;;2339611;55;21769;-74
2022/11/11 09:23:54;;;;;;;4.40;2.20;;;10.30;74.80;;;;;;2322561;55;21413;-72
2022/11/11 09:26:20;;;;;;;3.40;2.00;;;10.30;74.80;;;;;;2490079;55;21021;-73
2022/11/11 09:28:46;;;;;;;4.75;1.83;;;10.40;75.00;;;;;;2310485;55;20956;-73
2022/11/11 09:31:13;;;;;;;3.83;2.15;;;10.40;75.00;;;;;;2255703;56;20960;-73
2022/11/11 09:34:09;;;;;;;3.47;2.12;;;10.50;75.20;;;;;;2277228;55;21302;-73
2022/11/11 09:36:36;;;;;;;4.22;2.37;;;10.60;75.60;;;;;;2275807;55;20921;-73
2022/11/11 09:39:02;;;;;;;4.20;2.28;;;10.60;75.80;;;;;;2256019;56;21001;-73
2022/11/11 09:42:39;;;;;;;4.45;2.65;;;10.70;76.20;;;;;;2255963;55;20977;-73
2022/11/11 09:46:43;;;;;;;3.65;2.25;;;10.90;76.00;;;;;;2304644;55;21275;-73
2022/11/11 09:50:11;;;;;;;;;;;11.00;76.40;;;;;;2354305;55;20973;-73
2022/11/11 09:52:59;;;;;;;3.35;1.98;;;11.10;75.70;;;;;;2339972;55;20127;-74
2022/11/11 09:55:37;;;;;;;4.68;2.83;;;11.20;76.20;;;;;;2261418;56;21516;-73
2022/11/11 09:58:49;;;;;;;4.40;3.03;;;11.30;76.30;;;;;;2402887;55;20929;-74
2022/11/11 10:01:24;;;;;;;8.05;3.28;;;11.40;76.30;;;;;;2471818;54;21402;-74
2022/11/11 10:04:13;;;;;;;4.78;2.90;;;11.50;76.70;;;;;;2440625;55;21489;-74
2022/11/11 10:06:39;;;;;;;5.30;3.25;;;11.60;76.70;;;;;;2331948;55;21100;-74
2022/11/11 10:10:46;;;;;;;4.43;3.00;;;11.60;76.80;;;;;;2261501;56;21016;-74
2022/11/11 10:13:26;;;;;;;5.10;2.92;;;11.80;76.30;;;;;;2442462;55;20952;-73
2022/11/11 10:17:58;;;;;;;4.43;2.85;;;11.80;76.80;;;;;;2261616;56;21387;-73
2022/11/11 10:20:33;;;;;;;4.12;2.33;;;12.00;76.40;;;;;;2328514;55;21740;-74
2022/11/11 10:23:19;;;;;;;6.00;3.20;;;12.10;77.10;;;;;;2261624;56;20976;-74
2022/11/11 10:25:53;;;;;;;5.07;3.37;;;12.20;77.30;;;;;;2261659;56;21756;-73
2022/11/11 10:28:21;;;;;;;4.28;2.58;;;12.20;77.60;;;;;;2261453;56;20964;-74
2022/11/11 10:30:48;;;;;;;5.25;3.17;;;12.30;77.80;;;;;;2261520;56;21313;-74
2022/11/11 10:33:21;;;;;;;4.93;3.00;;;12.40;77.70;;;;;;2296689;55;20976;-74
2022/11/11 10:35:48;;;;;;;5.78;3.40;;;12.50;77.60;;;;;;2292286;55;21001;-74
2022/11/11 10:38:35;;;;;;;5.78;3.35;;;12.60;77.60;;;;;;2261346;56;21028;-74
2022/11/11 10:41:15;;;;;;;5.20;3.30;;;12.70;77.30;;;;;;2269950;55;21013;-74
2022/11/11 10:43:44;;;;;;;5.47;3.00;;;12.70;77.70;;;;;;2261478;56;21072;-74
2022/11/11 10:46:25;;;;;;;4.57;2.72;;;12.80;77.80;;;;;;2261228;56;21004;-73
2022/11/11 10:49:00;;;;;;;5.97;2.97;;;12.90;77.60;;;;;;2368943;54;20969;-74
2022/11/11 10:51:28;;;;;;;5.53;3.20;;;13.00;77.50;;;;;;2254649;56;21032;-74
2022/11/11 10:54:14;;;;;;;5.30;3.17;;;13.00;78.20;;;;;;2261529;56;20973;-74
2022/11/11 10:59:22;;;;;;;7.90;3.62;;;13.10;77.30;;;;;;2255144;56;21020;-75
2022/11/11 11:01:55;;;;;;;4.68;3.15;;;13.20;77.40;;;;;;2261368;56;21387;-78
2022/11/11 11:07:31;;;;;;;5.43;3.42;;;13.30;77.10;;;;;;2261250;56;21778;-74
2022/11/11 11:09:59;;;;;;;5.85;2.75;;;13.40;77.00;;;;;;2399076;55;20977;-74
2022/11/11 11:14:02;;;;;;;4.65;2.62;;;13.50;77.10;;;;;;2261546;56;21321;-75
2022/11/11 11:16:33;;;;;;;6.40;3.12;;;13.60;76.30;;;;;;2261297;56;21305;-77
2022/11/11 11:22:44;;;;;;;5.03;2.95;;;13.60;77.10;;;;;;2483086;55;21304;-74
2022/11/11 11:25:11;;;;;;;5.80;2.42;;;13.80;76.40;;;;;;2261499;56;20978;-76
2022/11/11 11:27:38;;;;;;;4.32;2.87;;;13.80;77.30;;;;;;2261594;56;20961;-77
2022/11/11 11:30:21;;;;;;;5.22;2.95;;;13.90;77.40;;;;;;2388277;55;21001;-73
2022/11/11 11:33:07;;;;;;;4.93;3.15;;;13.90;77.10;;;;;;2261884;56;21008;-73
2022/11/11 11:35:41;;;;;;;5.40;2.97;;;14.00;76.80;;;;;;2261386;56;20988;-74
2022/11/11 11:38:09;;;;;;;6.00;3.50;;;14.10;77.10;;;;;;2257943;55;21498;-74
2022/11/11 11:40:55;;;;;;;5.53;3.40;;;14.10;77.80;;;;;;2260974;56;20916;-75
2022/11/11 11:45:32;;;;;;;6.62;3.40;;;14.10;76.40;;;;;;2382704;55;20964;-76
2022/11/11 11:48:31;;;;;;;5.30;3.15;;;14.20;75.80;;;;;;2261569;56;20957;-78
2022/11/11 11:51:10;;;;;;;5.12;3.40;;;14.30;76.10;;;;;;2325147;55;21119;-77
2022/11/11 11:54:49;;;;;;;5.78;3.25;;;14.30;75.90;;;;;;2249565;55;21040;-74
2022/11/11 12:01:03;;;;;;;6.47;3.33;;;14.30;75.90;;;;;;2280175;55;21025;-74
2022/11/11 12:03:54;;;;;;;5.07;2.70;;;14.40;75.20;;;;;;2305947;55;20988;-73
2022/11/11 12:07:59;;;;;;;4.12;2.87;;;14.40;75.60;;;;;;2275422;55;20974;-75
2022/11/11 12:11:17;;;;;;;5.20;3.20;;;14.40;75.80;;;;;;2261222;56;20976;-74
2022/11/11 12:15:38;;;;;;;5.68;3.75;;;14.40;75.40;;;;;;2339710;55;21036;-74
2022/11/11 12:21:10;;;;;;;4.65;2.95;;;14.50;75.20;;;;;;2261095;56;21009;-74
2022/11/11 12:25:18;;;;;;;4.40;2.95;;;14.50;75.30;;;;;;2489799;55;21492;-74
2022/11/11 12:28:36;;;;;;;4.57;2.67;;;14.60;75.80;;;;;;2261397;56;21517;-74
2022/11/11 12:31:22;;;;;;;5.18;3.33;;;14.60;76.00;;;;;;2330275;55;21020;-77
2022/11/11 12:37:02;;;;;;;6.87;3.85;;;14.60;75.90;;;;;;2271395;55;21496;-77
2022/11/11 12:39:51;;;;;;;4.70;3.08;;;14.70;75.40;;;;;;2334170;55;20996;-74
2022/11/11 12:49:24;;;;;;;5.10;3.40;;;14.70;75.80;;;;;;2261156;56;20945;-74
2022/11/11 12:51:58;;;;;;;4.45;2.47;;;14.80;75.60;;;;;;2391864;55;20973;-74
2022/11/11 12:54:57;;;;;;;10.50;3.85;;;14.80;75.70;;;;;;2261427;56;20952;-75
2022/11/11 12:59:31;;;;;;;6.47;4.45;;;14.90;75.80;;;;;;2309342;55;20953;-74
2022/11/11 13:06:06;;;;;;;7.28;4.65;;;14.90;75.20;;;;;;2244094;56;21480;-75
2022/11/11 13:08:58;;;;;;;7.28;2.87;;;14.90;75.10;;;;;;2291858;55;21441;-77
2022/11/11 13:18:16;;;;;;;6.80;4.28;;;15.00;75.90;;;;;;2261255;56;21064;-74
2022/11/11 13:20:51;;;;;;;6.50;4.45;;;15.10;75.70;;;;;;2320414;55;21004;-74
2022/11/11 13:23:18;;;;;;;7.55;4.68;;;15.20;75.80;;;;;;2279851;55;21005;-73
2022/11/11 13:25:46;;;;;;;6.57;4.75;;;15.20;75.70;;;;;;2277978;55;21401;-74
2022/11/11 13:28:49;;;;;;;6.47;4.25;;;15.20;75.60;;;;;;2261531;56;21480;-76
2022/11/11 13:31:34;;;;;;;7.45;4.47;;;15.20;74.90;;;;;;2261092;56;21826;-75
2022/11/11 13:34:10;;;;;;;5.82;4.20;;;15.20;75.60;;;;;;2264440;56;20996;-74
2022/11/11 13:36:51;;;;;;;5.80;3.87;;;15.20;75.50;;;;;;2433469;55;21340;-75
2022/11/11 13:39:36;;;;;;;6.20;4.18;;;15.20;75.60;;;;;;2464053;55;20937;-77
2022/11/11 13:42:03;;;;;;;5.85;3.72;;;15.20;75.80;;;;;;2489055;55;21120;-74
2022/11/11 13:44:32;;;;;;;7.22;5.00;;;15.20;76.30;;;;;;2260328;56;21040;-76
2022/11/11 13:47:01;;;;;;;6.35;4.78;;;15.20;76.30;;;;;;2351027;55;21013;-74
2022/11/11 13:49:42;;;;;;;7.78;5.07;;;15.30;76.20;;;;;;2261185;56;21117;-76
2022/11/11 13:52:30;;;;;;;7.50;4.45;;;15.30;75.90;;;;;;2260946;56;21013;-76
2022/11/11 13:55:42;;;;;;;6.10;4.32;;;15.30;75.30;;;;;;2261017;56;21502;-75
2022/11/11 13:58:39;;;;;;;7.32;4.80;;;15.30;74.80;;;;;;2430243;55;21016;-74
2022/11/11 14:01:06;;;;;;;6.07;4.53;;;15.40;74.90;;;;;;2289735;55;21024;-74
2022/11/11 14:03:56;;;;;;;6.75;4.28;;;15.40;75.60;;;;;;2297526;55;20953;-74
2022/11/11 14:06:37;;;;;;;5.78;4.20;;;15.30;75.40;;;;;;2260838;56;20930;-73
2022/11/11 14:09:03;;;;;;;6.37;4.50;;;15.40;75.50;;;;;;2305136;55;20957;-75
2022/11/11 14:11:33;;;;;;;6.32;4.35;;;15.30;75.60;;;;;;2261191;56;21047;-75
2022/11/11 14:21:06;;;;;;;6.45;4.82;;;15.40;75.60;;;;;;2350488;55;20965;-79
2022/11/11 14:23:41;;;;;;;5.87;3.92;;;15.40;74.90;;;;;;2268219;55;21722;-75
2022/11/11 14:26:23;;;;;;;7.80;4.72;;;15.40;75.00;;;;;;2261322;56;20940;-75
2022/11/11 14:29:02;;;;;;;7.18;5.18;;;15.40;74.30;;;;;;2271504;55;21041;-76
2022/11/11 14:35:10;;;;;;;8.40;5.22;;;15.30;74.10;;;;;;2263707;55;20957;-79
2022/11/11 14:38:06;;;;;;;6.18;3.70;;;15.30;73.60;;;;;;2378526;55;21415;-77
2022/11/11 14:40:32;;;;;;;9.68;4.65;;;15.30;74.00;;;;;;2318518;55;20940;-74
2022/11/11 14:42:59;;;;;;;8.32;5.18;;;15.20;74.40;;;;;;2260988;56;21004;-77
2022/11/11 14:46:12;;;;;;;8.90;5.78;;;15.20;75.00;;;;;;2261747;56;20944;-74
2022/11/11 14:48:56;;;;;;;8.10;5.53;;;15.20;73.30;;;;;;2318524;55;21058;-74
2022/11/11 14:54:02;;;;;;;7.90;5.35;;;15.10;73.50;;;;;;2394880;55;20956;-75
2022/11/11 14:56:29;;;;;;;7.03;5.22;;;15.00;72.90;;;;;;2490858;55;20945;-73
2022/11/11 14:58:57;;;;;;;8.43;5.75;;;15.00;73.60;;;;;;2334052;55;20932;-75
2022/11/11 15:01:27;;;;;;;7.97;6.10;;;15.00;73.60;;;;;;2261289;56;20933;-76
2022/11/11 15:03:53;;;;;;;7.43;4.97;;;14.90;73.30;;;;;;2261622;56;21015;-74
2022/11/11 15:07:57;;;;;;;9.40;5.82;;;14.90;74.10;;;;;;2261425;56;20997;-74
2022/11/11 15:10:48;;;;;;;8.43;5.12;;;14.80;73.10;;;;;;2265511;55;20941;-74
2022/11/11 15:15:23;;;;;;;7.18;5.30;;;14.80;73.10;;;;;;2261405;56;20953;-77
2022/11/11 15:21:10;;;;;;;7.03;4.55;;;14.70;72.40;;;;;;2273481;55;20989;-75
2022/11/11 15:23:43;;;;;;;6.05;3.83;;;14.60;72.70;;;;;;2290467;55;20960;-75
2022/11/11 15:26:23;;;;;;;7.28;4.70;;;14.50;72.90;;;;;;2333733;55;22087;-77
2022/11/11 15:29:28;;;;;;;8.30;4.72;;;14.50;72.90;;;;;;2284900;55;21040;-77
2022/11/11 15:32:07;;;;;;;6.35;4.37;;;14.40;72.90;;;;;;2312691;55;20944;-75
2022/11/11 15:34:54;;;;;;;8.40;5.00;;;14.40;73.60;;;;;;2294411;55;21086;-74
2022/11/11 15:37:21;;;;;;;6.65;4.87;;;14.30;73.50;;;;;;2275800;55;20940;-74
2022/11/11 15:39:52;;;;;;;8.88;6.00;;;14.30;74.00;;;;;;2261125;56;21136;-73
2022/11/11 15:42:33;;;;;;;8.60;5.45;;;14.30;74.00;;;;;;2322559;55;20956;-74
2022/11/11 15:45:00;;;;;;;7.50;5.10;;;14.30;74.00;;;;;;2349924;55;20937;-74
2022/11/11 15:47:27;;;;;;;8.35;5.55;;;14.30;74.10;;;;;;2356267;55;20957;-74
2022/11/11 15:49:56;;;;;;;8.63;5.40;;;14.30;74.20;;;;;;2261297;56;20949;-75
2022/11/11 15:52:27;;;;;;;7.60;5.70;;;14.30;73.90;;;;;;2263620;55;21077;-74
2022/11/11 15:54:54;;;;;;;7.22;5.35;;;14.20;73.60;;;;;;2267863;55;21831;-74
2022/11/11 15:57:30;;;;;;;9.18;5.43;;;14.20;73.70;;;;;;2316043;55;21464;-75